AIRPORT ID: GWS

DATE: 2024-05-27 ZULU TIME: 21.55 LOCAL TIME: 15.55


METAR KGWS 272155Z AUTO 00000KT 10SM 24/00 A3025

ALTIMETER: A3025 Q1024

DENSITY ALT: 7800 Ft

WIND DIRECT: 290

WIND SPEED: 3 Gust

WIND CONDITIONS:

VISIBILTY: 10SM 9999M

TEMPERATURE: 75 F 24 C

DEW POINT: 32 F 0 C

HUMID: 21%

LCL: Above 5,000 feet

RADIO CHECK: 0

ADVISARIES: 0

GREETINGS: 0

CONVERSATIONS: 0